sensor_id;sensor_type;location;lat;lon;timestamp;P1;durP1;ratioP1;P2;durP2;ratioP2
80119;SDS011;69425;55.040;82.918;2023-05-20T00:03:00;8.55;;;5.18;;
80119;SDS011;69425;55.040;82.918;2023-05-20T00:08:01;8.65;;;5.03;;
80119;SDS011;69425;55.040;82.918;2023-05-20T00:13:04;8.38;;;5.57;;
80119;SDS011;69425;55.040;82.918;2023-05-20T00:18:06;6.57;;;4.95;;
80119;SDS011;69425;55.040;82.918;2023-05-20T00:23:07;8.25;;;5.40;;
80119;SDS011;69425;55.040;82.918;2023-05-20T00:28:10;11.15;;;5.63;;
80119;SDS011;69425;55.040;82.918;2023-05-20T00:33:11;9.35;;;5.18;;
80119;SDS011;69425;55.040;82.918;2023-05-20T00:38:12;9.23;;;5.43;;
80119;SDS011;69425;55.040;82.918;2023-05-20T00:43:15;13.13;;;5.30;;
80119;SDS011;69425;55.040;82.918;2023-05-20T00:48:16;10.15;;;4.80;;
80119;SDS011;69425;55.040;82.918;2023-05-20T00:53:18;6.30;;;4.10;;
80119;SDS011;69425;55.040;82.918;2023-05-20T00:58:21;6.70;;;4.13;;
80119;SDS011;69425;55.040;82.918;2023-05-20T01:03:22;7.20;;;3.67;;
80119;SDS011;69425;55.040;82.918;2023-05-20T01:08:24;6.30;;;3.78;;
80119;SDS011;69425;55.040;82.918;2023-05-20T01:13:27;4.82;;;3.38;;
80119;SDS011;69425;55.040;82.918;2023-05-20T01:18:31;7.78;;;3.72;;
80119;SDS011;69425;55.040;82.918;2023-05-20T01:23:36;4.20;;;3.60;;
80119;SDS011;69425;55.040;82.918;2023-05-20T01:28:38;6.85;;;3.83;;
80119;SDS011;69425;55.040;82.918;2023-05-20T01:33:39;7.47;;;3.50;;
80119;SDS011;69425;55.040;82.918;2023-05-20T01:38:42;5.82;;;3.03;;
80119;SDS011;69425;55.040;82.918;2023-05-20T01:43:44;9.82;;;4.28;;
80119;SDS011;69425;55.040;82.918;2023-05-20T01:48:45;8.63;;;4.10;;
80119;SDS011;69425;55.040;82.918;2023-05-20T01:53:48;5.88;;;3.35;;
80119;SDS011;69425;55.040;82.918;2023-05-20T01:58:49;8.63;;;3.88;;
80119;SDS011;69425;55.040;82.918;2023-05-20T02:08:52;6.03;;;3.28;;
80119;SDS011;69425;55.040;82.918;2023-05-20T02:13:53;6.32;;;2.95;;
80119;SDS011;69425;55.040;82.918;2023-05-20T02:18:55;3.97;;;3.28;;
80119;SDS011;69425;55.040;82.918;2023-05-20T02:23:57;4.72;;;2.72;;
80119;SDS011;69425;55.040;82.918;2023-05-20T02:28:58;4.93;;;2.65;;
80119;SDS011;69425;55.040;82.918;2023-05-20T02:34:00;4.82;;;2.67;;
80119;SDS011;69425;55.040;82.918;2023-05-20T02:39:02;3.90;;;1.98;;
80119;SDS011;69425;55.040;82.918;2023-05-20T02:44:04;5.95;;;1.90;;
80119;SDS011;69425;55.040;82.918;2023-05-20T02:49:05;5.07;;;2.03;;
80119;SDS011;69425;55.040;82.918;2023-05-20T02:54:08;2.70;;;1.60;;
80119;SDS011;69425;55.040;82.918;2023-05-20T02:59:09;3.20;;;1.30;;
80119;SDS011;69425;55.040;82.918;2023-05-20T03:04:10;2.28;;;1.60;;
80119;SDS011;69425;55.040;82.918;2023-05-20T03:09:13;2.25;;;1.27;;
80119;SDS011;69425;55.040;82.918;2023-05-20T03:14:14;2.85;;;1.27;;
80119;SDS011;69425;55.040;82.918;2023-05-20T03:19:15;2.40;;;1.13;;
80119;SDS011;69425;55.040;82.918;2023-05-20T03:24:18;3.20;;;1.35;;
80119;SDS011;69425;55.040;82.918;2023-05-20T03:29:19;3.00;;;1.05;;
80119;SDS011;69425;55.040;82.918;2023-05-20T03:34:20;2.08;;;1.33;;
80119;SDS011;69425;55.040;82.918;2023-05-20T03:39:23;2.75;;;1.35;;
80119;SDS011;69425;55.040;82.918;2023-05-20T03:44:24;3.08;;;1.48;;
80119;SDS011;69425;55.040;82.918;2023-05-20T03:49:25;2.83;;;1.30;;
80119;SDS011;69425;55.040;82.918;2023-05-20T03:54:28;2.90;;;1.60;;
80119;SDS011;69425;55.040;82.918;2023-05-20T03:59:29;1.90;;;1.40;;
80119;SDS011;69425;55.040;82.918;2023-05-20T04:04:30;2.47;;;2.00;;
80119;SDS011;69425;55.040;82.918;2023-05-20T04:09:33;4.05;;;1.30;;
80119;SDS011;69425;55.040;82.918;2023-05-20T04:14:34;3.95;;;1.38;;
80119;SDS011;69425;55.040;82.918;2023-05-20T04:19:36;3.33;;;1.10;;
80119;SDS011;69425;55.040;82.918;2023-05-20T04:24:38;3.08;;;1.70;;
80119;SDS011;69425;55.040;82.918;2023-05-20T04:29:40;3.45;;;1.27;;
80119;SDS011;69425;55.040;82.918;2023-05-20T04:34:41;4.03;;;1.40;;
80119;SDS011;69425;55.040;82.918;2023-05-20T04:39:43;3.75;;;1.52;;
80119;SDS011;69425;55.040;82.918;2023-05-20T04:44:45;1.95;;;1.20;;
80119;SDS011;69425;55.040;82.918;2023-05-20T04:49:46;4.55;;;1.65;;
80119;SDS011;69425;55.040;82.918;2023-05-20T04:54:48;4.63;;;1.52;;
80119;SDS011;69425;55.040;82.918;2023-05-20T04:59:50;2.70;;;1.40;;
80119;SDS011;69425;55.040;82.918;2023-05-20T05:04:51;2.80;;;1.33;;
80119;SDS011;69425;55.040;82.918;2023-05-20T05:09:53;2.08;;;1.20;;
80119;SDS011;69425;55.040;82.918;2023-05-20T05:14:55;4.65;;;1.83;;
80119;SDS011;69425;55.040;82.918;2023-05-20T05:19:56;2.50;;;1.15;;
80119;SDS011;69425;55.040;82.918;2023-05-20T05:24:59;2.60;;;1.60;;
80119;SDS011;69425;55.040;82.918;2023-05-20T05:30:00;4.55;;;1.75;;
80119;SDS011;69425;55.040;82.918;2023-05-20T05:35:02;4.35;;;2.28;;
80119;SDS011;69425;55.040;82.918;2023-05-20T05:40:07;4.70;;;1.88;;
80119;SDS011;69425;55.040;82.918;2023-05-20T05:45:09;2.35;;;1.20;;
80119;SDS011;69425;55.040;82.918;2023-05-20T05:50:11;2.72;;;1.30;;
80119;SDS011;69425;55.040;82.918;2023-05-20T05:55:13;6.05;;;1.30;;
80119;SDS011;69425;55.040;82.918;2023-05-20T06:00:15;10.73;;;2.45;;
80119;SDS011;69425;55.040;82.918;2023-05-20T06:05:16;7.03;;;1.42;;
80119;SDS011;69425;55.040;82.918;2023-05-20T06:10:19;2.85;;;1.23;;
80119;SDS011;69425;55.040;82.918;2023-05-20T06:15:20;3.58;;;1.80;;
80119;SDS011;69425;55.040;82.918;2023-05-20T06:20:21;6.38;;;1.60;;
80119;SDS011;69425;55.040;82.918;2023-05-20T06:25:25;2.45;;;1.55;;
80119;SDS011;69425;55.040;82.918;2023-05-20T06:30:27;3.03;;;1.50;;
80119;SDS011;69425;55.040;82.918;2023-05-20T06:35:28;3.60;;;1.58;;
80119;SDS011;69425;55.040;82.918;2023-05-20T06:40:31;2.95;;;1.48;;
80119;SDS011;69425;55.040;82.918;2023-05-20T06:45:32;12.18;;;2.20;;
80119;SDS011;69425;55.040;82.918;2023-05-20T06:50:33;11.15;;;1.98;;
80119;SDS011;69425;55.040;82.918;2023-05-20T06:55:36;2.78;;;1.80;;
80119;SDS011;69425;55.040;82.918;2023-05-20T07:00:37;8.75;;;1.98;;
80119;SDS011;69425;55.040;82.918;2023-05-20T07:05:38;5.22;;;2.08;;
80119;SDS011;69425;55.040;82.918;2023-05-20T07:10:41;5.50;;;2.20;;
80119;SDS011;69425;55.040;82.918;2023-05-20T07:15:45;4.90;;;1.85;;
80119;SDS011;69425;55.040;82.918;2023-05-20T07:20:46;4.85;;;2.60;;
80119;SDS011;69425;55.040;82.918;2023-05-20T07:25:50;4.00;;;2.28;;
80119;SDS011;69425;55.040;82.918;2023-05-20T07:30:52;6.47;;;2.65;;
80119;SDS011;69425;55.040;82.918;2023-05-20T07:35:53;8.15;;;3.75;;
80119;SDS011;69425;55.040;82.918;2023-05-20T07:40:56;6.57;;;2.75;;
80119;SDS011;69425;55.040;82.918;2023-05-20T07:45:57;7.63;;;3.10;;
80119;SDS011;69425;55.040;82.918;2023-05-20T07:50:59;3.05;;;2.40;;
80119;SDS011;69425;55.040;82.918;2023-05-20T07:56:02;8.73;;;3.53;;
80119;SDS011;69425;55.040;82.918;2023-05-20T08:01:03;6.85;;;3.08;;
80119;SDS011;69425;55.040;82.918;2023-05-20T08:06:04;11.57;;;3.72;;
80119;SDS011;69425;55.040;82.918;2023-05-20T08:11:07;8.13;;;3.83;;
80119;SDS011;69425;55.040;82.918;2023-05-20T08:16:08;6.00;;;2.85;;
80119;SDS011;69425;55.040;82.918;2023-05-20T08:21:10;5.50;;;2.97;;
80119;SDS011;69425;55.040;82.918;2023-05-20T08:26:13;5.22;;;2.50;;
80119;SDS011;69425;55.040;82.918;2023-05-20T08:31:14;6.35;;;2.50;;
80119;SDS011;69425;55.040;82.918;2023-05-20T08:36:15;6.32;;;2.42;;
80119;SDS011;69425;55.040;82.918;2023-05-20T08:41:18;5.70;;;2.80;;
80119;SDS011;69425;55.040;82.918;2023-05-20T08:46:19;4.20;;;2.00;;
80119;SDS011;69425;55.040;82.918;2023-05-20T08:51:21;4.43;;;2.00;;
80119;SDS011;69425;55.040;82.918;2023-05-20T08:56:25;4.05;;;2.20;;
80119;SDS011;69425;55.040;82.918;2023-05-20T09:01:27;7.70;;;2.35;;
80119;SDS011;69425;55.040;82.918;2023-05-20T09:06:28;7.03;;;2.22;;
80119;SDS011;69425;55.040;82.918;2023-05-20T09:11:31;3.30;;;2.10;;
80119;SDS011;69425;55.040;82.918;2023-05-20T09:16:32;3.45;;;2.40;;
80119;SDS011;69425;55.040;82.918;2023-05-20T09:21:34;4.10;;;2.83;;
80119;SDS011;69425;55.040;82.918;2023-05-20T09:26:36;8.05;;;2.75;;
80119;SDS011;69425;55.040;82.918;2023-05-20T09:31:38;7.55;;;3.60;;
80119;SDS011;69425;55.040;82.918;2023-05-20T09:36:40;7.32;;;3.42;;
80119;SDS011;69425;55.040;82.918;2023-05-20T09:41:48;4.60;;;2.60;;
80119;SDS011;69425;55.040;82.918;2023-05-20T09:46:51;5.80;;;3.65;;
80119;SDS011;69425;55.040;82.918;2023-05-20T09:51:53;5.25;;;3.38;;
80119;SDS011;69425;55.040;82.918;2023-05-20T09:56:56;9.75;;;3.78;;
80119;SDS011;69425;55.040;82.918;2023-05-20T10:01:59;8.93;;;3.83;;
80119;SDS011;69425;55.040;82.918;2023-05-20T10:07:05;6.32;;;3.40;;
80119;SDS011;69425;55.040;82.918;2023-05-20T10:12:18;7.35;;;3.40;;
80119;SDS011;69425;55.040;82.918;2023-05-20T10:17:24;6.72;;;3.60;;
80119;SDS011;69425;55.040;82.918;2023-05-20T10:22:29;10.38;;;4.18;;
80119;SDS011;69425;55.040;82.918;2023-05-20T10:27:40;7.45;;;3.05;;
80119;SDS011;69425;55.040;82.918;2023-05-20T10:32:47;4.95;;;3.03;;
80119;SDS011;69425;55.040;82.918;2023-05-20T10:37:52;5.60;;;2.90;;
80119;SDS011;69425;55.040;82.918;2023-05-20T10:42:55;5.97;;;2.85;;
80119;SDS011;69425;55.040;82.918;2023-05-20T10:47:56;5.70;;;2.70;;
80119;SDS011;69425;55.040;82.918;2023-05-20T10:53:01;2.58;;;2.17;;
80119;SDS011;69425;55.040;82.918;2023-05-20T10:58:05;2.88;;;2.30;;
80119;SDS011;69425;55.040;82.918;2023-05-20T11:03:07;4.80;;;2.33;;
80119;SDS011;69425;55.040;82.918;2023-05-20T11:08:08;6.28;;;2.47;;
80119;SDS011;69425;55.040;82.918;2023-05-20T11:13:12;3.65;;;2.35;;
80119;SDS011;69425;55.040;82.918;2023-05-20T11:18:13;4.47;;;2.55;;
80119;SDS011;69425;55.040;82.918;2023-05-20T11:23:15;3.25;;;2.58;;
80119;SDS011;69425;55.040;82.918;2023-05-20T11:28:17;3.38;;;2.45;;
80119;SDS011;69425;55.040;82.918;2023-05-20T11:33:19;4.25;;;2.78;;
80119;SDS011;69425;55.040;82.918;2023-05-20T11:38:20;8.20;;;2.90;;
80119;SDS011;69425;55.040;82.918;2023-05-20T11:43:23;5.00;;;2.63;;
80119;SDS011;69425;55.040;82.918;2023-05-20T11:48:24;5.00;;;2.60;;
80119;SDS011;69425;55.040;82.918;2023-05-20T11:53:25;3.88;;;2.63;;
80119;SDS011;69425;55.040;82.918;2023-05-20T11:58:28;4.20;;;2.97;;
80119;SDS011;69425;55.040;82.918;2023-05-20T12:03:30;6.45;;;2.63;;
80119;SDS011;69425;55.040;82.918;2023-05-20T12:08:32;5.28;;;2.42;;
80119;SDS011;69425;55.040;82.918;2023-05-20T12:13:34;6.57;;;2.75;;
80119;SDS011;69425;55.040;82.918;2023-05-20T12:18:36;13.32;;;3.15;;
80119;SDS011;69425;55.040;82.918;2023-05-20T12:23:37;6.22;;;2.78;;
80119;SDS011;69425;55.040;82.918;2023-05-20T12:28:39;4.30;;;2.55;;
80119;SDS011;69425;55.040;82.918;2023-05-20T12:33:41;5.63;;;2.38;;
80119;SDS011;69425;55.040;82.918;2023-05-20T12:38:42;8.05;;;2.60;;
80119;SDS011;69425;55.040;82.918;2023-05-20T12:43:44;6.20;;;2.53;;
80119;SDS011;69425;55.040;82.918;2023-05-20T12:48:46;8.25;;;3.30;;
80119;SDS011;69425;55.040;82.918;2023-05-20T12:53:48;5.13;;;3.00;;
80119;SDS011;69425;55.040;82.918;2023-05-20T12:58:50;6.18;;;3.13;;
80119;SDS011;69425;55.040;82.918;2023-05-20T13:03:51;4.38;;;2.75;;
80119;SDS011;69425;55.040;82.918;2023-05-20T13:08:53;5.28;;;2.50;;
80119;SDS011;69425;55.040;82.918;2023-05-20T13:13:55;2.65;;;2.28;;
80119;SDS011;69425;55.040;82.918;2023-05-20T13:18:56;10.80;;;2.97;;
80119;SDS011;69425;55.040;82.918;2023-05-20T13:23:58;4.90;;;1.85;;
80119;SDS011;69425;55.040;82.918;2023-05-20T13:29:00;8.98;;;2.58;;
80119;SDS011;69425;55.040;82.918;2023-05-20T13:34:02;5.45;;;2.83;;
80119;SDS011;69425;55.040;82.918;2023-05-20T13:39:03;4.40;;;2.50;;
80119;SDS011;69425;55.040;82.918;2023-05-20T13:44:05;4.28;;;2.33;;
80119;SDS011;69425;55.040;82.918;2023-05-20T13:49:07;5.90;;;2.78;;
80119;SDS011;69425;55.040;82.918;2023-05-20T13:54:08;6.03;;;2.72;;
80119;SDS011;69425;55.040;82.918;2023-05-20T13:59:11;4.65;;;2.55;;
80119;SDS011;69425;55.040;82.918;2023-05-20T14:04:12;5.53;;;3.03;;
80119;SDS011;69425;55.040;82.918;2023-05-20T14:09:13;6.43;;;3.25;;
80119;SDS011;69425;55.040;82.918;2023-05-20T14:14:16;6.80;;;3.00;;
80119;SDS011;69425;55.040;82.918;2023-05-20T14:19:17;5.63;;;2.65;;
80119;SDS011;69425;55.040;82.918;2023-05-20T14:24:18;10.13;;;3.17;;
80119;SDS011;69425;55.040;82.918;2023-05-20T14:29:21;6.10;;;3.30;;
80119;SDS011;69425;55.040;82.918;2023-05-20T14:34:22;5.88;;;3.60;;
80119;SDS011;69425;55.040;82.918;2023-05-20T14:39:23;8.75;;;3.30;;
80119;SDS011;69425;55.040;82.918;2023-05-20T14:44:26;7.68;;;3.88;;
80119;SDS011;69425;55.040;82.918;2023-05-20T14:49:27;10.05;;;4.05;;
80119;SDS011;69425;55.040;82.918;2023-05-20T14:54:29;16.27;;;3.92;;
80119;SDS011;69425;55.040;82.918;2023-05-20T14:59:32;7.20;;;4.03;;
80119;SDS011;69425;55.040;82.918;2023-05-20T15:04:33;9.65;;;4.22;;
80119;SDS011;69425;55.040;82.918;2023-05-20T15:09:35;7.10;;;3.90;;
80119;SDS011;69425;55.040;82.918;2023-05-20T15:14:37;9.23;;;3.72;;
80119;SDS011;69425;55.040;82.918;2023-05-20T15:19:38;10.57;;;3.63;;
80119;SDS011;69425;55.040;82.918;2023-05-20T15:24:40;7.35;;;3.40;;
80119;SDS011;69425;55.040;82.918;2023-05-20T15:29:43;10.15;;;3.88;;
80119;SDS011;69425;55.040;82.918;2023-05-20T15:34:44;8.23;;;3.85;;
80119;SDS011;69425;55.040;82.918;2023-05-20T15:39:45;10.35;;;3.72;;
80119;SDS011;69425;55.040;82.918;2023-05-20T15:44:48;7.70;;;3.53;;
80119;SDS011;69425;55.040;82.918;2023-05-20T15:49:49;11.32;;;4.97;;
80119;SDS011;69425;55.040;82.918;2023-05-20T15:54:50;5.50;;;3.47;;
80119;SDS011;69425;55.040;82.918;2023-05-20T15:59:53;11.85;;;3.80;;
80119;SDS011;69425;55.040;82.918;2023-05-20T16:04:54;6.60;;;3.00;;
80119;SDS011;69425;55.040;82.918;2023-05-20T16:09:55;6.90;;;3.08;;
80119;SDS011;69425;55.040;82.918;2023-05-20T16:14:58;6.40;;;3.35;;
80119;SDS011;69425;55.040;82.918;2023-05-20T16:19:59;5.35;;;2.90;;
80119;SDS011;69425;55.040;82.918;2023-05-20T16:25:00;6.60;;;3.22;;
80119;SDS011;69425;55.040;82.918;2023-05-20T16:30:05;7.93;;;3.28;;
80119;SDS011;69425;55.040;82.918;2023-05-20T16:35:07;4.70;;;2.70;;
80119;SDS011;69425;55.040;82.918;2023-05-20T16:40:09;6.20;;;3.42;;
80119;SDS011;69425;55.040;82.918;2023-05-20T16:45:12;5.45;;;3.00;;
80119;SDS011;69425;55.040;82.918;2023-05-20T16:50:13;8.23;;;3.33;;
80119;SDS011;69425;55.040;82.918;2023-05-20T16:55:14;7.25;;;3.88;;
80119;SDS011;69425;55.040;82.918;2023-05-20T17:00:17;6.10;;;2.83;;
80119;SDS011;69425;55.040;82.918;2023-05-20T17:05:18;8.13;;;3.72;;
80119;SDS011;69425;55.040;82.918;2023-05-20T17:10:20;5.65;;;3.55;;
80119;SDS011;69425;55.040;82.918;2023-05-20T17:15:23;7.40;;;3.42;;
80119;SDS011;69425;55.040;82.918;2023-05-20T17:20:24;6.70;;;3.92;;
80119;SDS011;69425;55.040;82.918;2023-05-20T17:25:25;7.25;;;4.10;;
80119;SDS011;69425;55.040;82.918;2023-05-20T17:30:27;4.43;;;3.63;;
80119;SDS011;69425;55.040;82.918;2023-05-20T17:35:29;11.95;;;3.63;;
80119;SDS011;69425;55.040;82.918;2023-05-20T17:40:30;7.63;;;3.75;;
80119;SDS011;69425;55.040;82.918;2023-05-20T17:45:33;7.18;;;3.67;;
80119;SDS011;69425;55.040;82.918;2023-05-20T17:50:34;6.90;;;4.03;;
80119;SDS011;69425;55.040;82.918;2023-05-20T17:55:35;6.97;;;3.65;;
80119;SDS011;69425;55.040;82.918;2023-05-20T18:00:38;5.47;;;4.15;;
80119;SDS011;69425;55.040;82.918;2023-05-20T18:05:39;11.25;;;4.43;;
80119;SDS011;69425;55.040;82.918;2023-05-20T18:10:41;8.20;;;4.00;;
80119;SDS011;69425;55.040;82.918;2023-05-20T18:15:43;7.50;;;3.42;;
80119;SDS011;69425;55.040;82.918;2023-05-20T18:20:44;8.77;;;4.18;;
80119;SDS011;69425;55.040;82.918;2023-05-20T18:25:46;8.20;;;3.47;;
80119;SDS011;69425;55.040;82.918;2023-05-20T18:30:48;9.45;;;4.18;;
80119;SDS011;69425;55.040;82.918;2023-05-20T18:35:50;8.18;;;4.00;;
80119;SDS011;69425;55.040;82.918;2023-05-20T18:40:51;6.55;;;3.58;;
80119;SDS011;69425;55.040;82.918;2023-05-20T18:45:54;7.80;;;4.03;;
80119;SDS011;69425;55.040;82.918;2023-05-20T18:50:55;8.07;;;4.07;;
80119;SDS011;69425;55.040;82.918;2023-05-20T18:55:56;7.47;;;4.43;;
80119;SDS011;69425;55.040;82.918;2023-05-20T19:00:59;8.18;;;4.55;;
80119;SDS011;69425;55.040;82.918;2023-05-20T19:06:00;8.82;;;5.55;;
80119;SDS011;69425;55.040;82.918;2023-05-20T19:11:01;9.23;;;6.30;;
80119;SDS011;69425;55.040;82.918;2023-05-20T19:16:04;9.35;;;6.07;;
80119;SDS011;69425;55.040;82.918;2023-05-20T19:21:06;9.82;;;6.05;;
80119;SDS011;69425;55.040;82.918;2023-05-20T19:26:07;13.52;;;6.47;;
80119;SDS011;69425;55.040;82.918;2023-05-20T19:31:10;11.07;;;5.82;;
80119;SDS011;69425;55.040;82.918;2023-05-20T19:36:11;11.00;;;5.65;;
80119;SDS011;69425;55.040;82.918;2023-05-20T19:41:12;8.68;;;5.10;;
80119;SDS011;69425;55.040;82.918;2023-05-20T19:46:15;11.32;;;5.45;;
80119;SDS011;69425;55.040;82.918;2023-05-20T19:51:17;8.63;;;5.00;;
80119;SDS011;69425;55.040;82.918;2023-05-20T19:56:18;7.63;;;5.07;;
80119;SDS011;69425;55.040;82.918;2023-05-20T20:01:21;12.13;;;5.80;;
80119;SDS011;69425;55.040;82.918;2023-05-20T20:06:22;10.25;;;4.53;;
80119;SDS011;69425;55.040;82.918;2023-05-20T20:11:23;6.30;;;4.85;;
80119;SDS011;69425;55.040;82.918;2023-05-20T20:16:26;7.68;;;5.10;;
80119;SDS011;69425;55.040;82.918;2023-05-20T20:21:27;10.60;;;5.90;;
80119;SDS011;69425;55.040;82.918;2023-05-20T20:26:28;8.85;;;4.88;;
80119;SDS011;69425;55.040;82.918;2023-05-20T20:36:32;8.95;;;5.53;;
80119;SDS011;69425;55.040;82.918;2023-05-20T20:41:33;11.68;;;5.40;;
80119;SDS011;69425;55.040;82.918;2023-05-20T20:46:35;11.25;;;4.85;;
80119;SDS011;69425;55.040;82.918;2023-05-20T20:51:37;9.63;;;4.57;;
80119;SDS011;69425;55.040;82.918;2023-05-20T20:56:38;10.85;;;5.45;;
80119;SDS011;69425;55.040;82.918;2023-05-20T21:06:41;8.02;;;4.30;;
80119;SDS011;69425;55.040;82.918;2023-05-20T21:11:43;8.73;;;4.47;;
80119;SDS011;69425;55.040;82.918;2023-05-20T21:16:45;6.53;;;4.25;;
80119;SDS011;69425;55.040;82.918;2023-05-20T21:21:47;8.98;;;4.53;;
80119;SDS011;69425;55.040;82.918;2023-05-20T21:26:48;7.18;;;4.43;;
80119;SDS011;69425;55.040;82.918;2023-05-20T21:36:51;6.90;;;3.83;;
80119;SDS011;69425;55.040;82.918;2023-05-20T21:41:52;5.72;;;3.55;;
80119;SDS011;69425;55.040;82.918;2023-05-20T21:51:56;8.00;;;3.67;;
80119;SDS011;69425;55.040;82.918;2023-05-20T22:01:59;6.35;;;3.47;;
80119;SDS011;69425;55.040;82.918;2023-05-20T22:07:00;5.20;;;3.13;;
80119;SDS011;69425;55.040;82.918;2023-05-20T22:12:01;4.45;;;3.03;;
80119;SDS011;69425;55.040;82.918;2023-05-20T22:17:04;5.88;;;3.13;;
80119;SDS011;69425;55.040;82.918;2023-05-20T22:22:06;5.93;;;3.15;;
80119;SDS011;69425;55.040;82.918;2023-05-20T22:27:07;5.35;;;3.15;;
80119;SDS011;69425;55.040;82.918;2023-05-20T22:37:10;4.97;;;2.67;;
80119;SDS011;69425;55.040;82.918;2023-05-20T22:47:14;6.45;;;3.17;;
80119;SDS011;69425;55.040;82.918;2023-05-20T22:52:15;6.03;;;2.75;;
80119;SDS011;69425;55.040;82.918;2023-05-20T22:57:16;5.45;;;3.20;;
80119;SDS011;69425;55.040;82.918;2023-05-20T23:07:19;6.95;;;2.97;;
80119;SDS011;69425;55.040;82.918;2023-05-20T23:17:23;3.95;;;2.47;;
80119;SDS011;69425;55.040;82.918;2023-05-20T23:22:24;6.28;;;3.50;;
80119;SDS011;69425;55.040;82.918;2023-05-20T23:32:28;7.80;;;3.50;;
80119;SDS011;69425;55.040;82.918;2023-05-20T23:37:29;4.15;;;2.85;;
80119;SDS011;69425;55.040;82.918;2023-05-20T23:42:30;4.63;;;3.38;;
80119;SDS011;69425;55.040;82.918;2023-05-20T23:47:33;5.22;;;3.60;;
80119;SDS011;69425;55.040;82.918;2023-05-20T23:52:34;6.28;;;3.75;;
80119;SDS011;69425;55.040;82.918;2023-05-20T23:57:35;8.32;;;4.38;;
